Time;durP1;ratioP1;P1;durP2;ratioP2;P2;SDS_P1;SDS_P2;PMS_P1;PMS_P2;Temp;Humidity;BMP_temperature;BMP_pressure;BME280_temperature;BME280_humidity;BME280_pressure;Samples;Min_cycle;Max_cycle;Signal;HPM_P1;HPM_P2
2021/07/02 00:01:51;;;;;;;84.18;40.67;;;16.30;99.90;;;;;;5092678;28;20051;-41
2021/07/02 00:04:16;;;;;;;68.70;39.28;;;16.30;99.90;;;;;;5106170;28;20348;-42
2021/07/02 00:06:42;;;;;;;90.68;41.20;;;16.30;99.90;;;;;;5103623;28;20103;-43
2021/07/02 00:09:07;;;;;;;59.92;34.85;;;16.30;99.90;;;;;;5101313;28;20039;-43
2021/07/02 00:11:33;;;;;;;70.63;36.90;;;16.30;99.90;;;;;;5100590;28;20024;-42
2021/07/02 00:13:58;;;;;;;73.75;36.13;;;16.30;99.90;;;;;;5103298;28;20033;-43
2021/07/02 00:16:24;;;;;;;73.32;35.97;;;16.30;99.90;;;;;;5102090;28;20020;-42
2021/07/02 00:18:49;;;;;;;80.60;36.65;;;16.30;99.90;;;;;;5101477;28;20177;-43
2021/07/02 00:21:15;;;;;;;70.07;36.85;;;16.30;99.90;;;;;;5101635;28;20017;-42
2021/07/02 00:23:41;;;;;;;77.43;36.50;;;16.30;99.90;;;;;;5103175;28;20457;-42
2021/07/02 00:26:06;;;;;;;69.35;37.10;;;16.20;99.90;;;;;;5101385;28;20023;-43
2021/07/02 00:28:32;;;;;;;61.30;32.63;;;16.20;99.90;;;;;;5102141;28;20111;-42
2021/07/02 00:30:57;;;;;;;58.25;33.63;;;16.30;99.90;;;;;;5091529;28;20032;-41
2021/07/02 00:33:22;;;;;;;69.40;35.13;;;16.30;99.90;;;;;;5100328;28;20595;-41
2021/07/02 00:35:48;;;;;;;71.57;33.97;;;16.30;99.90;;;;;;5106977;28;20024;-41
2021/07/02 00:38:14;;;;;;;65.07;32.88;;;16.30;99.90;;;;;;5101807;28;20016;-41
2021/07/02 00:40:39;;;;;;;63.30;34.55;;;16.20;99.90;;;;;;5102222;28;20030;-41
2021/07/02 00:43:05;;;;;;;64.15;32.42;;;16.20;99.90;;;;;;5101050;28;20016;-41
2021/07/02 00:45:32;;;;;;;60.05;31.42;;;16.20;99.90;;;;;;5101474;28;20509;-41
2021/07/02 00:47:59;;;;;;;69.80;33.70;;;16.20;99.90;;;;;;5101706;28;20084;-41
2021/07/02 00:50:25;;;;;;;57.78;32.47;;;16.30;99.90;;;;;;5100693;28;20546;-41
2021/07/02 00:52:51;;;;;;;71.93;35.67;;;16.30;99.90;;;;;;5102319;28;20032;-41
2021/07/02 00:55:16;;;;;;;77.90;37.38;;;16.20;99.90;;;;;;5099245;28;20805;-42
2021/07/02 00:57:44;;;;;;;80.20;38.03;;;16.30;99.90;;;;;;5102326;28;20103;-42
2021/07/02 01:00:10;;;;;;;70.95;34.83;;;16.20;99.90;;;;;;5100958;28;20329;-42
2021/07/02 01:02:36;;;;;;;70.78;37.95;;;16.20;99.90;;;;;;5091486;28;20019;-41
2021/07/02 01:05:04;;;;;;;77.00;36.92;;;16.20;99.90;;;;;;5104355;28;20027;-41
2021/07/02 01:07:30;;;;;;;73.03;37.03;;;16.20;99.90;;;;;;5094791;28;20050;-41
2021/07/02 01:09:55;;;;;;;77.30;37.72;;;16.20;99.90;;;;;;5101728;28;20024;-41
2021/07/02 01:12:21;;;;;;;77.30;39.38;;;16.20;99.90;;;;;;5094611;28;20040;-41
2021/07/02 01:14:48;;;;;;;73.90;38.95;;;16.20;99.90;;;;;;5098588;28;20278;-41
2021/07/02 01:17:13;;;;;;;79.55;37.75;;;16.20;99.90;;;;;;5105320;28;20407;-41
2021/07/02 01:19:50;;;;;;;83.20;40.92;;;16.20;99.90;;;;;;5097561;28;20020;-41
2021/07/02 01:22:23;;;;;;;71.85;38.10;;;16.20;99.90;;;;;;5106264;28;20106;-41
2021/07/02 01:24:50;;;;;;;81.07;36.38;;;16.20;99.90;;;;;;5098391;28;20016;-41
2021/07/02 01:27:15;;;;;;;68.28;35.50;;;16.20;99.90;;;;;;5100727;28;20028;-41
2021/07/02 01:29:41;;;;;;;70.43;36.63;;;16.20;99.90;;;;;;5100611;28;20516;-41
2021/07/02 01:32:07;;;;;;;85.22;38.95;;;16.20;99.90;;;;;;5093336;28;20028;-41
2021/07/02 01:34:33;;;;;;;78.90;36.13;;;16.20;99.90;;;;;;5107132;28;20532;-41
2021/07/02 01:36:58;;;;;;;91.80;37.22;;;16.20;99.90;;;;;;5098374;28;20043;-42
2021/07/02 01:39:24;;;;;;;73.00;35.10;;;16.20;99.90;;;;;;5103199;28;20104;-41
2021/07/02 01:41:50;;;;;;;70.90;36.20;;;16.20;99.90;;;;;;5097296;28;20024;-41
2021/07/02 01:44:15;;;;;;;69.15;34.92;;;16.20;99.90;;;;;;5100635;28;20020;-41
2021/07/02 01:46:41;;;;;;;77.90;36.13;;;16.20;99.90;;;;;;5101044;28;20133;-41
2021/07/02 01:49:06;;;;;;;77.22;36.78;;;16.20;99.90;;;;;;5098589;28;20046;-41
2021/07/02 01:51:32;;;;;;;75.65;36.30;;;16.20;99.90;;;;;;5103223;28;20028;-41
2021/07/02 01:53:57;;;;;;;76.60;37.22;;;16.20;99.90;;;;;;5097178;28;20521;-42
2021/07/02 01:56:23;;;;;;;80.82;37.45;;;16.20;99.90;;;;;;5105049;28;20024;-42
2021/07/02 01:58:49;;;;;;;88.95;38.75;;;16.20;99.90;;;;;;5097824;28;20500;-42
2021/07/02 02:01:15;;;;;;;88.53;40.65;;;16.20;99.90;;;;;;5097076;28;20024;-43
2021/07/02 02:03:40;;;;;;;96.80;39.03;;;16.10;99.90;;;;;;5090536;28;20067;-42
2021/07/02 02:06:06;;;;;;;76.35;37.53;;;16.10;99.90;;;;;;5100128;28;20481;-42
2021/07/02 02:08:31;;;;;;;89.07;37.97;;;16.10;99.90;;;;;;5102985;28;20024;-42
2021/07/02 02:10:57;;;;;;;81.60;37.88;;;16.20;99.90;;;;;;5096440;28;20084;-42
2021/07/02 02:13:22;;;;;;;85.95;35.85;;;16.20;99.90;;;;;;5100997;28;20024;-41
2021/07/02 02:15:49;;;;;;;82.60;37.08;;;16.20;99.90;;;;;;5100070;28;20034;-42
2021/07/02 02:18:14;;;;;;;88.63;34.22;;;16.20;99.90;;;;;;5098194;28;20031;-42
2021/07/02 02:20:40;;;;;;;79.82;36.75;;;16.20;99.90;;;;;;5100244;28;20015;-41
2021/07/02 02:23:05;;;;;;;76.22;35.78;;;16.10;99.90;;;;;;5099860;28;20012;-42
2021/07/02 02:25:31;;;;;;;83.47;34.63;;;16.20;99.90;;;;;;5099334;28;20497;-42
2021/07/02 02:27:56;;;;;;;85.57;38.05;;;16.10;99.90;;;;;;5081306;28;20035;-42
2021/07/02 02:30:23;;;;;;;86.40;35.25;;;16.10;99.90;;;;;;5069023;28;20024;-42
2021/07/02 02:32:49;;;;;;;88.28;37.75;;;16.10;99.90;;;;;;5068591;28;20576;-42
2021/07/02 02:35:15;;;;;;;73.95;33.20;;;16.10;99.90;;;;;;5072411;28;20099;-42
2021/07/02 02:37:41;;;;;;;74.80;34.15;;;16.10;99.90;;;;;;5071974;28;20021;-42
2021/07/02 02:40:07;;;;;;;71.78;34.65;;;16.10;99.90;;;;;;5076730;28;20032;-42
2021/07/02 02:42:34;;;;;;;74.75;35.83;;;16.20;99.90;;;;;;5075319;28;20012;-42
2021/07/02 02:44:59;;;;;;;73.93;35.10;;;16.20;99.90;;;;;;5072643;28;20024;-42
2021/07/02 02:47:25;;;;;;;64.43;33.10;;;16.20;99.90;;;;;;5077062;28;20388;-41
2021/07/02 02:49:50;;;;;;;68.82;34.80;;;16.20;99.90;;;;;;5071837;28;20544;-42
2021/07/02 02:52:16;;;;;;;94.78;38.30;;;16.10;99.90;;;;;;5076844;28;20065;-42
2021/07/02 02:54:41;;;;;;;56.80;33.17;;;16.10;99.90;;;;;;5071436;28;20498;-41
2021/07/02 02:57:08;;;;;;;73.35;35.53;;;16.10;99.90;;;;;;5074712;28;20024;-41
2021/07/02 02:59:38;;;;;;;64.93;33.50;;;16.10;99.90;;;;;;5072427;28;20025;-42
2021/07/02 03:02:07;;;;;;;74.72;35.00;;;16.20;99.90;;;;;;5070768;28;20025;-41
2021/07/02 03:04:35;;;;;;;63.78;32.20;;;16.10;99.90;;;;;;5072339;28;20036;-42
2021/07/02 03:07:01;;;;;;;60.22;31.73;;;16.10;99.90;;;;;;5073185;28;20028;-42
2021/07/02 03:09:27;;;;;;;75.60;32.70;;;16.20;99.90;;;;;;5067176;28;20281;-42
2021/07/02 03:11:52;;;;;;;70.40;33.90;;;16.20;99.90;;;;;;5067709;28;20093;-42
2021/07/02 03:14:22;;;;;;;67.68;32.30;;;16.20;99.90;;;;;;5068578;28;20508;-42
2021/07/02 03:16:51;;;;;;;76.47;35.13;;;16.20;99.90;;;;;;5068414;28;20105;-42
2021/07/02 03:19:18;;;;;;;71.68;34.10;;;16.20;99.90;;;;;;5067640;28;20051;-42
2021/07/02 03:21:44;;;;;;;76.53;34.90;;;16.20;99.90;;;;;;5073251;28;20020;-42
2021/07/02 03:24:10;;;;;;;73.30;35.03;;;16.20;99.90;;;;;;5069407;28;20387;-42
2021/07/02 03:26:36;;;;;;;72.35;34.15;;;16.20;99.90;;;;;;5075156;28;20032;-41
2021/07/02 03:29:02;;;;;;;65.28;33.45;;;16.20;99.90;;;;;;5085945;28;20027;-42
2021/07/02 03:31:28;;;;;;;67.18;33.47;;;16.20;99.90;;;;;;5081461;28;20032;-41
2021/07/02 03:33:53;;;;;;;68.20;34.15;;;16.20;99.90;;;;;;5085142;28;20496;-41
2021/07/02 03:36:19;;;;;;;69.28;33.95;;;16.20;99.90;;;;;;5091798;28;20024;-41
2021/07/02 03:38:44;;;;;;;64.93;32.08;;;16.30;99.90;;;;;;5085993;28;20019;-42
2021/07/02 03:41:10;;;;;;;63.85;31.90;;;16.30;99.90;;;;;;5094869;28;20029;-41
2021/07/02 03:43:35;;;;;;;69.88;33.67;;;16.20;99.90;;;;;;5075370;28;20107;-41
2021/07/02 03:46:01;;;;;;;71.30;33.95;;;16.30;99.90;;;;;;5081830;28;20500;-41
2021/07/02 03:48:26;;;;;;;68.97;33.03;;;16.20;99.90;;;;;;5081131;28;20109;-41
2021/07/02 03:50:52;;;;;;;67.82;32.50;;;16.30;99.90;;;;;;5084929;28;20054;-41
2021/07/02 03:53:17;;;;;;;76.22;36.17;;;16.20;99.90;;;;;;5089708;28;20038;-41
2021/07/02 03:55:43;;;;;;;69.88;33.20;;;16.30;99.90;;;;;;5085442;28;20020;-41
2021/07/02 03:58:09;;;;;;;70.05;33.03;;;16.20;99.90;;;;;;5095880;28;20498;-41
2021/07/02 04:00:34;;;;;;;67.82;32.38;;;16.30;99.90;;;;;;5075087;28;20017;-41
2021/07/02 04:03:00;;;;;;;63.05;30.63;;;16.30;99.90;;;;;;5082613;28;20020;-42
2021/07/02 04:05:25;;;;;;;60.88;31.33;;;16.30;99.90;;;;;;5083182;28;20028;-42
2021/07/02 04:07:51;;;;;;;73.63;32.85;;;16.30;99.90;;;;;;5085241;28;20098;-42
2021/07/02 04:10:17;;;;;;;77.40;35.33;;;16.30;99.90;;;;;;5088295;28;20047;-42
2021/07/02 04:12:42;;;;;;;74.43;35.72;;;16.30;99.90;;;;;;5090420;28;20028;-42
2021/07/02 04:15:09;;;;;;;85.97;36.03;;;16.30;99.90;;;;;;5097513;28;20035;-42
2021/07/02 04:17:37;;;;;;;68.80;34.72;;;16.30;99.90;;;;;;5101871;28;20417;-42
2021/07/02 04:20:04;;;;;;;82.00;37.20;;;16.30;99.90;;;;;;5099959;28;20156;-42
2021/07/02 04:22:30;;;;;;;76.85;36.33;;;16.30;99.90;;;;;;5110923;28;20024;-42
2021/07/02 04:24:55;;;;;;;65.35;34.33;;;16.30;99.90;;;;;;5094103;28;20020;-43
2021/07/02 04:27:21;;;;;;;68.22;34.13;;;16.30;99.90;;;;;;5097483;28;20028;-42
2021/07/02 04:29:46;;;;;;;64.05;33.45;;;16.20;99.90;;;;;;5082175;28;20246;-42
2021/07/02 04:32:12;;;;;;;79.68;34.83;;;16.30;99.90;;;;;;5080707;28;20041;-42
2021/07/02 04:34:38;;;;;;;70.70;32.20;;;16.20;99.90;;;;;;5075626;28;20029;-42
2021/07/02 04:37:04;;;;;;;67.32;32.70;;;16.30;99.90;;;;;;5071514;28;20513;-44
2021/07/02 04:39:29;;;;;;;59.33;32.15;;;16.30;99.90;;;;;;5070679;28;20048;-42
2021/07/02 04:41:55;;;;;;;72.38;34.10;;;16.30;99.90;;;;;;5070903;28;20087;-41
2021/07/02 04:44:20;;;;;;;71.32;34.42;;;16.20;99.90;;;;;;5069884;28;20017;-42
2021/07/02 04:46:46;;;;;;;56.15;30.23;;;16.30;99.90;;;;;;5070899;28;20027;-42
2021/07/02 04:49:12;;;;;;;66.07;33.53;;;16.30;99.90;;;;;;5072515;28;20070;-41
2021/07/02 04:51:37;;;;;;;75.15;36.75;;;16.30;99.90;;;;;;5071150;28;20249;-42
2021/07/02 04:54:03;;;;;;;88.07;35.80;;;16.20;99.90;;;;;;5075990;28;20418;-41
2021/07/02 04:56:28;;;;;;;63.55;33.17;;;16.20;99.90;;;;;;5080750;28;20084;-43
2021/07/02 04:58:57;;;;;;;74.90;35.72;;;16.20;99.90;;;;;;5078249;28;20036;-42
2021/07/02 05:01:24;;;;;;;68.10;33.35;;;16.20;99.90;;;;;;5074097;28;20011;-44
2021/07/02 05:03:50;;;;;;;67.45;33.67;;;16.20;99.90;;;;;;5076832;28;20013;-43
2021/07/02 05:06:18;;;;;;;76.75;36.35;;;16.20;99.90;;;;;;5079453;28;20035;-42
2021/07/02 05:08:43;;;;;;;83.13;36.08;;;16.20;99.90;;;;;;5075046;28;20890;-42
2021/07/02 05:11:10;;;;;;;80.38;35.15;;;16.10;99.90;;;;;;5072923;28;20133;-42
2021/07/02 05:13:37;;;;;;;69.93;33.22;;;16.10;99.90;;;;;;5072017;28;20048;-42
2021/07/02 05:16:03;;;;;;;55.05;29.33;;;16.10;99.90;;;;;;5076119;28;20024;-42
2021/07/02 05:18:29;;;;;;;72.80;32.20;;;16.10;99.90;;;;;;5078667;28;20046;-42
2021/07/02 05:20:54;;;;;;;61.33;30.45;;;16.10;99.90;;;;;;5076177;28;20110;-42
2021/07/02 05:23:20;;;;;;;70.80;32.45;;;16.10;99.90;;;;;;5081400;28;20039;-42
2021/07/02 05:25:45;;;;;;;55.55;30.02;;;16.10;99.90;;;;;;5073782;28;20437;-42
2021/07/02 05:28:11;;;;;;;51.97;29.65;;;16.10;99.90;;;;;;5076444;28;20025;-42
2021/07/02 05:30:36;;;;;;;54.08;30.05;;;16.10;99.90;;;;;;5076102;28;20024;-42
2021/07/02 05:33:21;;;;;;;55.33;30.13;;;16.10;99.90;;;;;;5075494;28;20478;-43
2021/07/02 05:35:46;;;;;;;60.45;30.23;;;16.10;99.90;;;;;;5086797;28;20077;-42
2021/07/02 05:38:12;;;;;;;56.30;29.65;;;16.10;99.90;;;;;;5080335;28;20520;-42
2021/07/02 05:40:37;;;;;;;52.67;30.20;;;16.00;99.90;;;;;;5076398;28;20096;-42
2021/07/02 05:43:03;;;;;;;59.03;30.95;;;16.10;99.90;;;;;;5076917;28;20167;-43
2021/07/02 05:45:28;;;;;;;58.85;30.55;;;16.10;99.90;;;;;;5076697;28;20015;-42
2021/07/02 05:48:00;;;;;;;64.05;30.50;;;16.10;99.90;;;;;;5067506;28;20449;-42
2021/07/02 05:50:27;;;;;;;64.13;31.40;;;16.00;99.90;;;;;;5069262;28;20020;-42
2021/07/02 05:52:55;;;;;;;54.72;26.45;;;16.00;99.90;;;;;;5069711;28;20020;-42
2021/07/02 05:55:24;;;;;;;48.30;25.90;;;16.00;99.90;;;;;;5069690;28;20028;-43
2021/07/02 05:57:51;;;;;;;39.83;24.63;;;16.00;99.90;;;;;;5069403;28;20039;-42
2021/07/02 06:00:18;;;;;;;46.85;25.75;;;16.00;99.90;;;;;;5068522;28;20098;-42
2021/07/02 06:02:43;;;;;;;42.65;23.20;;;15.90;99.90;;;;;;5076567;28;20642;-42
2021/07/02 06:05:09;;;;;;;37.72;20.25;;;15.90;99.90;;;;;;5071592;28;20041;-41
2021/07/02 06:08:01;;;;;;;32.78;20.02;;;16.00;99.90;;;;;;5092908;28;20038;-42
2021/07/02 06:10:27;;;;;;;39.60;20.63;;;15.90;99.90;;;;;;5071584;28;20043;-42
2021/07/02 06:12:53;;;;;;;33.20;20.45;;;15.90;99.90;;;;;;5098437;28;20419;-42
2021/07/02 06:15:20;;;;;;;36.10;21.73;;;16.00;99.90;;;;;;5102246;28;20019;-42
2021/07/02 06:17:49;;;;;;;38.80;21.25;;;15.90;99.90;;;;;;5101765;28;20035;-42
2021/07/02 06:20:15;;;;;;;40.80;23.27;;;15.90;99.90;;;;;;5095354;28;20028;-42
2021/07/02 06:22:42;;;;;;;44.17;23.23;;;15.90;99.90;;;;;;5092379;28;20465;-42
2021/07/02 06:25:10;;;;;;;42.08;24.83;;;15.90;99.90;;;;;;5093252;28;20078;-42
2021/07/02 06:27:36;;;;;;;45.10;24.90;;;15.90;99.90;;;;;;5088802;28;20031;-42
2021/07/02 06:30:03;;;;;;;49.15;27.50;;;15.90;99.90;;;;;;5089957;28;20019;-42
2021/07/02 06:32:28;;;;;;;58.15;29.58;;;15.90;99.90;;;;;;5085812;28;20474;-42
2021/07/02 06:34:54;;;;;;;56.83;29.17;;;15.90;99.90;;;;;;5091033;28;20027;-42
2021/07/02 06:37:20;;;;;;;62.83;31.33;;;15.90;99.90;;;;;;5093348;28;20429;-42
2021/07/02 06:39:45;;;;;;;70.38;33.40;;;16.00;99.90;;;;;;5092269;28;20055;-42
2021/07/02 06:42:11;;;;;;;72.47;36.33;;;15.90;99.90;;;;;;5088752;28;20195;-42
2021/07/02 06:44:36;;;;;;;68.35;36.38;;;15.90;99.90;;;;;;5083615;28;20020;-43
2021/07/02 06:47:02;;;;;;;70.82;35.88;;;15.90;99.90;;;;;;5085852;28;20041;-42
2021/07/02 06:49:27;;;;;;;75.45;36.55;;;15.90;99.90;;;;;;5080104;28;20031;-43
2021/07/02 06:51:53;;;;;;;74.07;36.97;;;15.90;99.90;;;;;;5076845;28;20032;-44
2021/07/02 06:54:19;;;;;;;70.07;35.65;;;15.90;99.90;;;;;;5072975;28;20020;-42
2021/07/02 06:57:03;;;;;;;74.60;37.42;;;16.00;99.90;;;;;;5077695;28;20383;-44
2021/07/02 06:59:32;;;;;;;80.82;37.15;;;16.00;99.90;;;;;;5072668;28;20676;-43
2021/07/02 07:01:59;;;;;;;83.72;37.95;;;16.00;99.90;;;;;;5068352;28;20117;-43
2021/07/02 07:04:29;;;;;;;71.97;35.95;;;16.10;99.90;;;;;;5069232;28;20052;-43
2021/07/02 07:06:55;;;;;;;79.97;39.67;;;16.30;99.90;;;;;;5070295;28;20043;-43
2021/07/02 07:09:20;;;;;;;80.90;37.55;;;16.40;99.90;;;;;;5069904;28;20347;-43
2021/07/02 07:11:46;;;;;;;72.40;35.00;;;16.50;99.90;;;;;;5069521;28;20044;-44
2021/07/02 07:14:11;;;;;;;79.55;34.90;;;16.60;99.90;;;;;;5073980;28;20020;-43
2021/07/02 07:16:37;;;;;;;74.75;33.75;;;16.70;99.90;;;;;;5071102;28;20060;-43
2021/07/02 07:19:02;;;;;;;64.93;32.20;;;16.70;99.90;;;;;;5069181;28;20144;-43
2021/07/02 07:21:28;;;;;;;64.20;32.08;;;16.80;99.90;;;;;;5070347;28;20107;-42
2021/07/02 07:23:53;;;;;;;68.85;33.88;;;16.80;99.90;;;;;;5072629;28;20100;-42
2021/07/02 07:26:19;;;;;;;71.65;31.67;;;16.90;99.90;;;;;;5075962;28;20574;-42
2021/07/02 07:28:44;;;;;;;63.47;30.50;;;16.90;99.90;;;;;;5070311;28;20028;-42
2021/07/02 07:31:10;;;;;;;61.17;30.67;;;17.10;99.90;;;;;;5069988;28;20476;-41
2021/07/02 07:33:39;;;;;;;66.38;30.67;;;17.10;99.90;;;;;;5069349;28;20375;-42
2021/07/02 07:36:06;;;;;;;50.63;29.08;;;17.10;99.90;;;;;;5074155;28;20030;-42
2021/07/02 07:38:31;;;;;;;66.97;30.33;;;17.20;99.90;;;;;;5083353;28;20504;-42
2021/07/02 07:40:57;;;;;;;48.72;28.10;;;17.20;99.90;;;;;;5075487;28;20089;-42
2021/07/02 07:43:24;;;;;;;59.47;26.63;;;17.40;99.90;;;;;;5074357;28;20497;-42
2021/07/02 07:45:50;;;;;;;49.80;25.30;;;17.80;99.90;;;;;;5071679;28;20020;-43
2021/07/02 07:48:15;;;;;;;46.83;24.67;;;18.10;99.90;;;;;;5076926;28;20024;-43
2021/07/02 07:50:42;;;;;;;45.10;23.95;;;18.20;99.90;;;;;;5077483;28;20031;-43
2021/07/02 07:53:09;;;;;;;48.30;23.65;;;18.30;99.90;;;;;;5077877;28;20039;-43
2021/07/02 07:55:35;;;;;;;41.95;22.83;;;18.20;99.90;;;;;;5093780;28;20465;-42
2021/07/02 07:58:01;;;;;;;43.10;24.77;;;18.10;99.90;;;;;;5074373;28;20035;-42
2021/07/02 08:00:28;;;;;;;43.22;24.30;;;18.10;99.90;;;;;;5072392;28;20406;-42
2021/07/02 08:02:54;;;;;;;42.30;23.38;;;18.00;99.90;;;;;;5086197;28;20535;-42
2021/07/02 08:05:19;;;;;;;43.72;23.67;;;18.00;99.90;;;;;;5083153;28;20035;-43
2021/07/02 08:07:45;;;;;;;34.90;20.85;;;17.90;99.90;;;;;;5095948;28;20489;-43
2021/07/02 08:10:16;;;;;;;43.05;22.65;;;17.90;99.90;;;;;;5098803;28;20587;-43
2021/07/02 08:12:43;;;;;;;40.55;23.65;;;17.80;99.90;;;;;;5095038;28;20052;-42
2021/07/02 08:15:10;;;;;;;41.90;23.23;;;17.70;99.90;;;;;;5088193;28;20024;-42
2021/07/02 08:17:36;;;;;;;47.97;24.90;;;17.60;99.90;;;;;;5094983;28;20013;-42
2021/07/02 08:20:05;;;;;;;45.40;24.45;;;17.50;99.90;;;;;;5080158;28;20025;-42
2021/07/02 08:22:30;;;;;;;47.88;23.65;;;17.40;99.90;;;;;;5094900;28;20020;-41
2021/07/02 08:24:56;;;;;;;43.17;23.70;;;17.30;99.90;;;;;;5092089;28;20032;-42
2021/07/02 08:27:24;;;;;;;37.05;22.52;;;17.40;99.90;;;;;;5079484;28;20377;-42
2021/07/02 08:29:50;;;;;;;42.45;24.67;;;17.40;99.90;;;;;;5089823;28;20023;-42
2021/07/02 08:32:16;;;;;;;41.03;23.33;;;17.40;99.90;;;;;;5078090;28;20020;-43
2021/07/02 08:34:41;;;;;;;35.53;21.98;;;17.30;99.90;;;;;;5096875;28;20028;-42
2021/07/02 08:37:07;;;;;;;47.35;26.48;;;17.30;99.90;;;;;;5078880;28;20037;-42
2021/07/02 08:39:32;;;;;;;64.32;29.60;;;17.20;99.90;;;;;;5102809;28;20028;-43
2021/07/02 08:41:58;;;;;;;46.47;27.02;;;17.10;99.90;;;;;;5091755;28;20025;-42
2021/07/02 08:44:23;;;;;;;56.90;29.17;;;17.10;99.90;;;;;;5083464;28;20048;-42
2021/07/02 08:46:50;;;;;;;57.00;28.98;;;17.00;99.90;;;;;;5081366;28;20027;-42
2021/07/02 08:49:17;;;;;;;53.97;28.15;;;17.10;99.90;;;;;;5093070;28;20056;-42
2021/07/02 08:51:43;;;;;;;63.05;29.33;;;17.00;99.90;;;;;;5090056;28;20016;-43
2021/07/02 08:54:14;;;;;;;53.80;27.83;;;16.90;99.90;;;;;;5091743;28;20412;-42
2021/07/02 08:56:56;;;;;;;59.50;28.33;;;16.90;99.90;;;;;;5092994;28;20038;-42
2021/07/02 08:59:29;;;;;;;58.88;29.25;;;17.00;99.90;;;;;;5081906;28;20012;-42
2021/07/02 09:01:56;;;;;;;56.10;29.90;;;16.90;99.90;;;;;;5089769;28;20046;-43
2021/07/02 09:04:30;;;;;;;52.72;27.95;;;16.90;99.90;;;;;;5083461;28;20554;-43
2021/07/02 09:06:59;;;;;;;57.10;28.65;;;16.90;99.90;;;;;;5079348;28;20074;-42
2021/07/02 09:09:25;;;;;;;56.10;29.30;;;17.00;99.90;;;;;;5086064;28;20058;-43
2021/07/02 09:12:11;;;;;;;56.13;27.17;;;17.10;99.90;;;;;;5088596;28;20489;-43
2021/07/02 09:14:37;;;;;;;51.58;27.15;;;17.10;99.90;;;;;;5081632;28;20127;-43
2021/07/02 09:17:10;;;;;;;56.63;27.48;;;17.10;99.90;;;;;;5096964;28;20199;-42
2021/07/02 09:19:37;;;;;;;49.10;25.58;;;17.20;99.90;;;;;;5086694;28;20029;-43
2021/07/02 09:22:19;;;;;;;45.53;26.13;;;17.20;99.90;;;;;;5100252;28;20561;-43
2021/07/02 09:24:48;;;;;;;49.15;26.67;;;17.20;99.90;;;;;;5088252;28;20031;-43
2021/07/02 09:27:29;;;;;;;55.67;25.83;;;17.20;99.90;;;;;;5091163;28;20036;-43
2021/07/02 09:30:02;;;;;;;;;;;17.30;99.90;;;;;;5092157;28;20146;-43
2021/07/02 09:32:30;;;;;;;43.42;23.33;;;17.20;99.90;;;;;;5080399;28;19954;-43
2021/07/02 09:34:59;;;;;;;47.03;23.67;;;17.40;99.90;;;;;;5092931;28;20028;-43
2021/07/02 09:37:30;;;;;;;40.45;22.35;;;17.50;99.90;;;;;;5081019;28;20019;-43
2021/07/02 09:39:56;;;;;;;42.13;22.27;;;17.60;99.90;;;;;;5084968;28;20056;-43
2021/07/02 09:42:29;;;;;;;44.25;21.95;;;17.60;99.90;;;;;;5081329;28;20046;-43
2021/07/02 09:45:10;;;;;;;40.42;20.83;;;17.90;99.90;;;;;;5089145;28;20049;-43
2021/07/02 09:47:37;;;;;;;35.63;19.77;;;18.20;99.90;;;;;;5085713;28;20027;-43
2021/07/02 09:50:26;;;;;;;31.30;18.38;;;18.40;99.90;;;;;;5077123;28;20044;-43
2021/07/02 09:53:01;;;;;;;36.28;18.10;;;18.50;99.90;;;;;;5095782;28;20023;-43
2021/07/02 09:55:30;;;;;;;28.05;16.65;;;18.70;99.90;;;;;;5083944;28;20031;-42
2021/07/02 09:58:07;;;;;;;35.38;18.10;;;18.80;99.90;;;;;;5088645;28;20019;-42
2021/07/02 10:00:34;;;;;;;36.35;19.48;;;18.60;99.90;;;;;;5076665;28;20337;-46
2021/07/02 10:03:02;;;;;;;31.52;17.40;;;18.40;99.90;;;;;;5087445;28;20023;-45
2021/07/02 10:05:27;;;;;;;30.88;17.60;;;18.30;99.90;;;;;;5076554;28;20033;-45
2021/07/02 10:08:03;;;;;;;31.45;17.55;;;18.20;99.90;;;;;;5090065;28;20035;-45
2021/07/02 10:10:29;;;;;;;34.97;18.80;;;18.00;99.90;;;;;;5074046;28;20038;-45
2021/07/02 10:12:56;;;;;;;30.52;17.65;;;18.00;99.90;;;;;;5081918;28;20028;-45
2021/07/02 10:15:23;;;;;;;31.17;16.27;;;17.90;99.90;;;;;;5077405;28;20386;-47
2021/07/02 10:17:50;;;;;;;26.52;15.95;;;18.10;99.90;;;;;;5089312;28;20085;-45
2021/07/02 10:20:16;;;;;;;32.05;15.60;;;18.30;99.90;;;;;;5074897;28;20036;-46
2021/07/02 10:22:44;;;;;;;23.38;14.25;;;18.60;99.90;;;;;;5092905;28;20493;-45
2021/07/02 10:25:11;;;;;;;23.27;14.00;;;18.90;99.90;;;;;;5086538;28;20111;-45
2021/07/02 10:27:39;;;;;;;22.60;13.85;;;19.10;99.90;;;;;;5080072;28;20028;-45
2021/07/02 10:30:08;;;;;;;18.52;12.35;;;19.10;99.90;;;;;;5088476;28;20029;-48
2021/07/02 10:32:34;;;;;;;22.08;12.35;;;19.10;99.90;;;;;;5093333;28;20106;-46
2021/07/02 10:35:00;;;;;;;24.63;14.30;;;19.20;99.90;;;;;;5086748;28;20199;-46
2021/07/02 10:37:26;;;;;;;22.52;12.75;;;19.00;99.90;;;;;;5074598;28;20090;-46
2021/07/02 10:39:53;;;;;;;21.10;13.20;;;19.00;99.90;;;;;;5092709;28;20063;-45
2021/07/02 10:42:19;;;;;;;19.55;12.95;;;18.60;99.90;;;;;;5087510;28;20020;-45
2021/07/02 10:44:53;;;;;;;22.63;13.88;;;18.40;99.90;;;;;;5076717;28;20079;-45
2021/07/02 10:47:23;;;;;;;21.05;12.43;;;18.50;99.90;;;;;;5094295;28;20516;-45
2021/07/02 10:49:50;;;;;;;19.33;13.18;;;18.70;99.90;;;;;;5088103;28;20515;-45
2021/07/02 10:52:35;;;;;;;23.77;12.98;;;18.90;99.90;;;;;;5095946;28;20039;-47
2021/07/02 10:55:05;;;;;;;18.90;12.20;;;18.90;99.90;;;;;;5076616;28;20443;-44
2021/07/02 10:57:31;;;;;;;15.48;11.13;;;19.10;99.90;;;;;;5101565;28;20016;-45
2021/07/02 10:59:57;;;;;;;26.17;11.65;;;19.30;99.90;;;;;;5078030;28;20020;-45
2021/07/02 11:02:26;;;;;;;17.02;10.30;;;19.30;99.90;;;;;;5084733;28;20441;-45
2021/07/02 11:04:57;;;;;;;17.05;10.75;;;19.30;99.90;;;;;;5086320;28;20105;-45
2021/07/02 11:07:22;;;;;;;;;;;19.20;99.90;;;;;;5077547;28;20019;-45
2021/07/02 11:09:55;;;;;;;15.57;11.07;;;19.10;99.90;;;;;;5090335;28;20002;-45
2021/07/02 11:12:21;;;;;;;22.88;12.25;;;19.10;99.90;;;;;;5085403;28;20103;-45
2021/07/02 11:14:56;;;;;;;15.93;10.27;;;19.10;99.90;;;;;;5092344;28;20068;-44
2021/07/02 11:17:21;;;;;;;17.42;10.85;;;19.20;99.90;;;;;;5090012;28;20016;-45
2021/07/02 11:20:09;;;;;;;14.05;10.15;;;19.20;99.90;;;;;;5088571;28;20430;-44
2021/07/02 11:22:37;;;;;;;16.30;9.93;;;19.20;99.90;;;;;;5070712;28;20306;-45
2021/07/02 11:25:33;;;;;;;19.10;10.50;;;19.30;99.90;;;;;;5075952;28;20117;-45
2021/07/02 11:28:08;;;;;;;19.77;10.95;;;19.30;99.90;;;;;;5077311;28;20626;-45
2021/07/02 11:30:36;;;;;;;15.52;10.23;;;19.40;99.90;;;;;;5088528;28;20535;-45
2021/07/02 11:33:08;;;;;;;13.60;10.35;;;19.70;99.90;;;;;;5093331;28;20034;-45
2021/07/02 11:35:48;;;;;;;16.30;10.15;;;20.30;99.90;;;;;;5081208;28;20352;-45
2021/07/02 11:38:17;;;;;;;17.85;10.10;;;20.70;99.90;;;;;;5082342;28;20025;-45
2021/07/02 11:40:57;;;;;;;14.77;9.93;;;20.70;99.90;;;;;;5098392;28;20068;-45
2021/07/02 11:43:36;;;;;;;16.48;10.27;;;20.70;99.90;;;;;;5075924;28;20490;-46
2021/07/02 11:46:05;;;;;;;16.70;10.50;;;20.70;99.90;;;;;;5094463;28;20124;-45
2021/07/02 11:48:36;;;;;;;13.35;9.13;;;20.80;99.90;;;;;;5083394;28;20025;-45
2021/07/02 11:51:08;;;;;;;13.60;9.00;;;20.80;99.90;;;;;;5085237;28;20029;-45
2021/07/02 11:53:45;;;;;;;14.52;9.98;;;20.80;99.90;;;;;;5083504;28;20074;-45
2021/07/02 11:56:21;;;;;;;12.35;9.35;;;20.70;99.90;;;;;;5100882;28;20056;-45
2021/07/02 11:58:59;;;;;;;16.60;10.60;;;20.60;99.90;;;;;;5085560;28;20028;-45
2021/07/02 12:01:29;;;;;;;15.30;10.95;;;20.50;99.90;;;;;;5079189;28;20069;-45
2021/07/02 12:03:55;;;;;;;15.80;11.10;;;20.40;99.90;;;;;;5086272;28;20043;-45
2021/07/02 12:06:25;;;;;;;13.90;10.10;;;20.50;99.90;;;;;;5083389;28;20034;-45
2021/07/02 12:09:06;;;;;;;14.65;10.23;;;20.50;99.90;;;;;;5097045;28;20119;-45
2021/07/02 12:11:38;;;;;;;19.13;11.15;;;20.70;99.90;;;;;;5085764;28;20036;-45
2021/07/02 12:14:09;;;;;;;12.88;9.35;;;20.90;99.90;;;;;;5097510;28;20019;-45
2021/07/02 12:16:37;;;;;;;13.50;9.70;;;21.50;99.90;;;;;;5095125;28;20369;-45
2021/07/02 12:19:04;;;;;;;13.18;9.23;;;22.20;99.90;;;;;;5097834;28;20377;-45
2021/07/02 12:21:30;;;;;;;12.38;9.00;;;22.20;99.90;;;;;;5086634;28;20460;-45
2021/07/02 12:24:02;;;;;;;11.70;8.00;;;21.90;99.90;;;;;;5093571;28;20051;-45
2021/07/02 12:26:30;;;;;;;13.07;8.80;;;21.70;99.90;;;;;;5082152;28;20404;-46
2021/07/02 12:29:04;;;;;;;14.23;9.43;;;21.50;99.90;;;;;;5088121;28;20076;-45
2021/07/02 12:31:33;;;;;;;15.43;9.52;;;21.30;99.90;;;;;;5082037;28;20390;-45